createdAt,value
2018-06-18T00:01:46.319Z,83.90
2018-06-18T00:04:14.261Z,84.00
2018-06-18T00:06:42.280Z,84.10
2018-06-18T00:09:12.620Z,83.80
2018-06-18T00:11:40.758Z,83.70
2018-06-18T00:16:37.100Z,84.00
2018-06-18T00:19:05.034Z,83.60
2018-06-18T00:21:33.218Z,83.70
2018-06-18T00:24:01.317Z,83.60
2018-06-18T00:26:29.186Z,83.90
2018-06-18T00:28:57.052Z,83.70
2018-06-18T00:31:24.981Z,83.90
2018-06-18T00:33:53.204Z,84.10
2018-06-18T00:36:21.072Z,84.00
2018-06-18T00:38:49.860Z,84.00
2018-06-18T00:41:18.242Z,84.10
2018-06-18T00:43:46.126Z,84.20
2018-06-18T00:46:14.469Z,84.20
2018-06-18T00:48:42.377Z,84.30
2018-06-18T00:51:10.254Z,84.30
2018-06-18T00:53:38.118Z,84.30
2018-06-18T00:56:16.595Z,84.30
2018-06-18T00:58:44.790Z,84.30
2018-06-18T01:01:13.159Z,84.40
2018-06-18T01:06:08.883Z,84.80
2018-06-18T01:08:36.728Z,84.70
2018-06-18T01:11:04.650Z,84.70
2018-06-18T01:16:00.193Z,85.10
2018-06-18T01:18:28.109Z,85.20
2018-06-18T01:20:56.512Z,85.40
2018-06-18T01:23:48.625Z,85.50
2018-06-18T01:26:16.706Z,85.80
2018-06-18T01:28:44.590Z,85.70
2018-06-18T01:31:12.458Z,86.00
2018-06-18T01:36:08.183Z,86.30
2018-06-18T01:41:03.752Z,86.50
2018-06-18T01:43:31.664Z,86.30
2018-06-18T01:45:59.697Z,86.40
2018-06-18T01:48:27.827Z,86.50
2018-06-18T01:53:23.425Z,86.50
2018-06-18T01:58:19.000Z,86.80
2018-06-18T02:05:42.578Z,86.60
2018-06-18T02:08:10.508Z,86.60
2018-06-18T02:10:38.597Z,86.60
2018-06-18T02:13:06.595Z,87.10
2018-06-18T02:15:34.530Z,87.10
2018-06-18T02:20:30.138Z,86.60
2018-06-18T02:22:57.997Z,86.60
2018-06-18T02:25:25.871Z,86.60
2018-06-18T02:28:01.635Z,87.00
2018-06-18T02:30:35.409Z,86.70
2018-06-18T02:34:11.641Z,86.80
2018-06-18T02:36:45.121Z,86.90
2018-06-18T02:41:43.230Z,88.10
2018-06-18T02:44:11.095Z,88.20
2018-06-18T02:46:38.978Z,87.90
2018-06-18T02:51:35.479Z,87.90
2018-06-18T02:54:03.402Z,88.00
2018-06-18T02:56:38.246Z,88.20
2018-06-18T02:59:06.119Z,88.10
2018-06-18T03:06:29.995Z,88.20
2018-06-18T03:08:57.852Z,88.30
2018-06-18T03:11:25.736Z,88.50
2018-06-18T03:16:21.450Z,88.40
2018-06-18T03:18:54.798Z,88.70
2018-06-18T03:21:29.162Z,88.40
2018-06-18T03:24:03.031Z,88.60
2018-06-18T03:26:36.807Z,89.20
2018-06-18T03:29:10.410Z,88.90
2018-06-18T03:34:06.047Z,88.60
2018-06-18T03:36:33.986Z,88.90
2018-06-18T03:39:01.883Z,88.90
2018-06-18T03:41:29.747Z,89.80
2018-06-18T03:44:02.551Z,89.50
2018-06-18T03:46:30.524Z,89.40
2018-06-18T03:48:59.107Z,89.10
2018-06-18T03:51:26.942Z,89.10
2018-06-18T03:56:22.731Z,89.30
2018-06-18T03:58:50.594Z,89.50
2018-06-18T04:02:02.817Z,89.80
2018-06-18T04:07:15.287Z,90.00
2018-06-18T04:09:48.736Z,90.00
2018-06-18T04:12:16.917Z,90.30
2018-06-18T04:14:45.094Z,90.20
2018-06-18T04:17:14.547Z,90.30
2018-06-18T04:19:42.450Z,90.40
2018-06-18T04:22:10.327Z,90.30
2018-06-18T04:24:38.893Z,90.50
2018-06-18T04:27:06.854Z,90.50
2018-06-18T04:29:34.734Z,90.60
2018-06-18T04:32:03.200Z,90.50
2018-06-18T04:34:40.611Z,90.50
2018-06-18T04:37:08.522Z,90.40
2018-06-18T04:39:36.427Z,90.40
2018-06-18T04:42:10.805Z,90.50
2018-06-18T04:44:44.426Z,90.40
2018-06-18T04:47:18.041Z,90.30
2018-06-18T04:49:51.610Z,90.40
2018-06-18T04:52:19.522Z,90.30
2018-06-18T04:57:15.181Z,90.40
2018-06-18T05:02:12.671Z,89.80
2018-06-18T05:10:42.704Z,89.60
2018-06-18T05:13:11.126Z,88.40
2018-06-18T05:18:07.464Z,88.00
2018-06-18T05:20:35.379Z,88.50
2018-06-18T05:25:35.777Z,88.00
2018-06-18T05:30:32.096Z,86.70
2018-06-18T05:35:29.079Z,85.50
2018-06-18T05:38:34.930Z,83.80
2018-06-18T05:43:31.430Z,84.50
2018-06-18T05:50:55.410Z,81.40
2018-06-18T05:53:23.924Z,80.50
2018-06-18T05:55:52.178Z,79.90
2018-06-18T05:58:20.080Z,79.60
2018-06-18T06:00:48.519Z,80.20
2018-06-18T06:03:16.443Z,79.40
2018-06-18T06:05:44.954Z,80.50
2018-06-18T06:08:12.983Z,79.20
2018-06-18T06:10:40.921Z,78.50
2018-06-18T06:13:09.796Z,80.00
2018-06-18T06:15:38.171Z,78.00
2018-06-18T06:18:06.398Z,78.20
2018-06-18T06:20:35.102Z,76.00
2018-06-18T06:25:30.872Z,77.20
2018-06-18T06:30:26.489Z,76.30
2018-06-18T06:32:54.384Z,75.00
2018-06-18T06:35:26.477Z,74.20
2018-06-18T06:37:55.423Z,74.80
2018-06-18T06:40:23.821Z,75.40
2018-06-18T06:42:51.777Z,74.80
2018-06-18T06:45:20.235Z,74.10
2018-06-18T06:47:48.164Z,73.00
2018-06-18T06:50:16.180Z,73.90
2018-06-18T06:55:12.184Z,74.90
2018-06-18T06:57:40.066Z,73.20
2018-06-18T07:00:08.166Z,73.10
2018-06-18T07:02:36.171Z,71.50
2018-06-18T07:05:04.182Z,72.70
2018-06-18T07:07:32.895Z,71.80
2018-06-18T07:10:00.816Z,71.00
2018-06-18T07:12:28.847Z,72.40
2018-06-18T07:14:56.761Z,72.00
2018-06-18T07:17:24.661Z,70.20
2018-06-18T07:22:20.433Z,71.80
2018-06-18T07:24:48.330Z,71.60
2018-06-18T07:27:16.305Z,73.70
2018-06-18T07:29:44.205Z,73.00
2018-06-18T07:34:39.899Z,72.00
2018-06-18T07:37:08.502Z,72.40
2018-06-18T07:39:36.554Z,71.80
2018-06-18T07:42:04.473Z,72.80
2018-06-18T07:44:32.732Z,72.20
2018-06-18T07:47:00.758Z,68.10
2018-06-18T07:49:28.684Z,68.30
2018-06-18T07:54:24.319Z,68.10
2018-06-18T07:56:52.298Z,67.80
2018-06-18T07:59:20.668Z,69.10
2018-06-18T08:06:44.144Z,65.80
2018-06-18T08:09:13.571Z,66.60
2018-06-18T08:11:42.203Z,67.50
2018-06-18T08:14:10.320Z,66.90
2018-06-18T08:19:06.914Z,67.70
2018-06-18T08:21:35.134Z,66.60
2018-06-18T08:26:31.181Z,67.90
2018-06-18T08:31:27.100Z,68.60
2018-06-18T08:33:55.012Z,67.50
2018-06-18T08:36:23.279Z,66.70
2018-06-18T08:43:47.349Z,67.40
2018-06-18T08:46:15.311Z,64.30
2018-06-18T08:48:49.981Z,63.40
2018-06-18T08:53:58.816Z,64.50
2018-06-18T08:59:08.838Z,66.60
2018-06-18T09:01:41.871Z,64.10
2018-06-18T09:06:50.200Z,64.60
2018-06-18T09:11:45.886Z,63.30
2018-06-18T09:14:13.811Z,62.20
2018-06-18T09:16:41.751Z,62.00
2018-06-18T09:21:37.906Z,62.10
2018-06-18T09:24:06.100Z,62.70
2018-06-18T09:26:34.011Z,63.90
2018-06-18T09:29:01.906Z,62.80
2018-06-18T09:31:31.477Z,62.10
2018-06-18T09:34:00.182Z,62.20
2018-06-18T09:36:28.117Z,61.90
2018-06-18T09:38:56.873Z,61.70
2018-06-18T09:41:25.157Z,62.60
2018-06-18T09:46:20.835Z,64.70
2018-06-18T09:48:57.502Z,60.40
2018-06-18T09:51:31.076Z,59.70
2018-06-18T09:54:05.486Z,60.70
2018-06-18T09:56:39.110Z,59.80
2018-06-18T09:59:12.697Z,60.50
2018-06-18T10:01:40.636Z,60.10
2018-06-18T10:04:08.505Z,59.10
2018-06-18T10:11:35.901Z,59.70
2018-06-18T10:14:04.944Z,59.40
2018-06-18T10:16:32.857Z,61.10
2018-06-18T10:19:01.263Z,61.90
2018-06-18T10:21:29.536Z,60.60
2018-06-18T10:26:26.673Z,62.20
2018-06-18T10:31:22.365Z,58.20
2018-06-18T10:33:56.619Z,59.30
2018-06-18T10:36:30.170Z,59.70
2018-06-18T10:39:03.746Z,58.80
2018-06-18T10:44:05.476Z,58.10
2018-06-18T10:46:34.304Z,59.60
2018-06-18T10:49:03.341Z,58.30
2018-06-18T10:51:31.369Z,59.90
2018-06-18T10:53:59.294Z,59.30
2018-06-18T10:56:27.206Z,58.50
2018-06-18T11:01:29.218Z,61.30
2018-06-18T11:03:57.944Z,58.50
2018-06-18T11:06:31.560Z,58.70
2018-06-18T11:08:59.801Z,59.20
2018-06-18T11:11:28.227Z,59.30
2018-06-18T11:13:56.104Z,58.00
2018-06-18T11:18:57.513Z,58.50
2018-06-18T11:21:33.473Z,58.20
2018-06-18T11:24:06.875Z,61.50
2018-06-18T11:26:40.908Z,62.90
2018-06-18T11:29:09.135Z,64.30
2018-06-18T11:31:37.985Z,63.50
2018-06-18T11:34:06.559Z,59.70
2018-06-18T11:36:35.143Z,59.20
2018-06-18T11:39:04.750Z,60.10
2018-06-18T11:46:28.329Z,58.50
2018-06-18T11:48:57.022Z,58.90
2018-06-18T11:51:25.065Z,58.90
2018-06-18T11:53:52.987Z,58.80
2018-06-18T11:56:20.982Z,61.30
2018-06-18T12:01:29.504Z,61.20
2018-06-18T12:04:03.026Z,61.40
2018-06-18T12:06:37.270Z,57.70
2018-06-18T12:09:12.793Z,58.90
2018-06-18T12:11:41.746Z,62.10
2018-06-18T12:14:09.719Z,58.30
2018-06-18T12:16:38.360Z,54.30
2018-06-18T12:19:07.251Z,56.00
2018-06-18T12:21:35.309Z,60.10
2018-06-18T12:24:03.335Z,54.70
2018-06-18T12:26:32.130Z,53.90
2018-06-18T12:29:00.409Z,56.50
2018-06-18T12:33:56.894Z,54.20
2018-06-18T12:36:24.830Z,54.10
2018-06-18T12:38:52.756Z,53.90
2018-06-18T12:41:20.752Z,54.60
2018-06-18T12:43:52.358Z,50.70
2018-06-18T12:46:26.768Z,51.40
2018-06-18T12:49:01.226Z,51.60
2018-06-18T12:51:34.902Z,50.80
2018-06-18T12:54:08.516Z,51.90
2018-06-18T12:56:42.968Z,52.10
2018-06-18T12:59:11.948Z,52.40
2018-06-18T13:01:45.402Z,54.80
2018-06-18T13:09:09.509Z,53.60
2018-06-18T13:14:05.492Z,54.10
2018-06-18T13:16:33.526Z,53.00
2018-06-18T13:21:29.163Z,53.90
2018-06-18T13:23:57.067Z,54.50
2018-06-18T13:26:25.080Z,52.70
2018-06-18T13:31:20.967Z,54.70
2018-06-18T13:33:48.935Z,55.10
2018-06-18T13:36:16.978Z,54.20
2018-06-18T13:38:51.445Z,56.00
2018-06-18T13:41:26.085Z,52.90
2018-06-18T13:43:59.607Z,56.10
2018-06-18T13:49:00.931Z,56.50
2018-06-18T13:51:29.845Z,55.60
2018-06-18T13:53:57.756Z,55.30
2018-06-18T13:56:25.654Z,55.00
2018-06-18T13:58:54.270Z,56.70
2018-06-18T14:01:22.935Z,59.20
2018-06-18T14:03:51.121Z,55.40
2018-06-18T14:06:19.435Z,55.90
2018-06-18T14:11:15.207Z,56.80
2018-06-18T14:13:43.119Z,58.40
2018-06-18T14:16:11.413Z,56.30
2018-06-18T14:18:39.309Z,56.60
2018-06-18T14:21:07.228Z,58.00
2018-06-18T14:26:02.993Z,56.60
2018-06-18T14:28:30.914Z,55.90
2018-06-18T14:31:04.525Z,56.50
2018-06-18T14:36:13.885Z,57.50
2018-06-18T14:38:47.310Z,58.40
2018-06-18T14:43:43.254Z,57.30
2018-06-18T14:46:11.264Z,58.00
2018-06-18T14:48:40.431Z,59.70
2018-06-18T14:51:08.463Z,59.30
2018-06-18T14:56:37.114Z,60.40
2018-06-18T14:59:19.079Z,61.50
2018-06-18T15:01:47.073Z,61.20
2018-06-18T15:04:15.692Z,61.40
2018-06-18T15:11:40.691Z,62.90
2018-06-18T15:14:09.078Z,60.30
2018-06-18T15:16:37.005Z,61.00
2018-06-18T15:21:36.191Z,60.40
2018-06-18T15:24:07.537Z,59.00
2018-06-18T15:26:35.424Z,60.80
2018-06-18T15:31:31.191Z,61.10
2018-06-18T15:33:59.459Z,57.90
2018-06-18T15:41:23.862Z,60.40
2018-06-18T15:43:51.788Z,60.10
2018-06-18T15:46:19.700Z,59.40
2018-06-18T15:53:43.866Z,60.50
2018-06-18T15:56:11.983Z,62.40
2018-06-18T15:58:39.909Z,60.10
2018-06-18T16:01:08.517Z,61.50
2018-06-18T16:03:37.302Z,60.60
2018-06-18T16:06:05.406Z,60.00
2018-06-18T16:11:01.142Z,59.60
2018-06-18T16:15:58.128Z,59.20
2018-06-18T16:18:26.402Z,59.60
2018-06-18T16:20:54.651Z,59.20
2018-06-18T16:28:18.435Z,60.10
2018-06-18T16:30:46.419Z,61.30
2018-06-18T16:33:14.322Z,62.20
2018-06-18T16:35:42.230Z,60.80
2018-06-18T16:38:10.115Z,61.40
2018-06-18T16:40:38.011Z,62.40
2018-06-18T16:45:33.672Z,61.90
2018-06-18T16:48:02.082Z,62.80
2018-06-18T16:50:30.819Z,62.70
2018-06-18T16:52:58.855Z,63.30
2018-06-18T16:55:26.940Z,64.20
2018-06-18T16:57:54.865Z,64.30
2018-06-18T17:00:22.763Z,63.60
2018-06-18T17:02:50.707Z,64.40
2018-06-18T17:05:18.616Z,63.80
2018-06-18T17:07:46.513Z,63.60
2018-06-18T17:10:15.500Z,64.80
2018-06-18T17:12:43.399Z,65.20
2018-06-18T17:15:11.287Z,64.20
2018-06-18T17:17:39.982Z,64.50
2018-06-18T17:22:35.810Z,63.90
2018-06-18T17:25:03.791Z,63.50
2018-06-18T17:27:32.687Z,64.50
2018-06-18T17:30:00.578Z,64.50
2018-06-18T17:32:28.556Z,64.60
2018-06-18T17:34:56.439Z,66.50
2018-06-18T17:37:24.374Z,65.60
2018-06-18T17:39:52.269Z,65.50
2018-06-18T17:42:20.566Z,65.40
2018-06-18T17:44:48.493Z,64.60
2018-06-18T17:49:44.235Z,64.80
2018-06-18T17:54:39.939Z,64.10
2018-06-18T17:59:36.292Z,62.50
2018-06-18T18:02:04.407Z,62.90
2018-06-18T18:04:32.311Z,63.40
2018-06-18T18:07:00.213Z,63.30
2018-06-18T18:11:55.894Z,64.20
2018-06-18T18:14:24.145Z,63.90
2018-06-18T18:16:52.308Z,64.10
2018-06-18T18:19:20.214Z,62.70
2018-06-18T18:21:48.090Z,64.60
2018-06-18T18:24:15.984Z,65.20
2018-06-18T18:31:40.211Z,65.60
2018-06-18T18:39:05.723Z,66.10
2018-06-18T18:41:33.843Z,66.50
2018-06-18T18:44:01.766Z,65.90
2018-06-18T18:46:29.650Z,66.40
2018-06-18T18:48:58.584Z,66.60
2018-06-18T18:51:26.490Z,66.50
2018-06-18T18:53:54.446Z,68.00
2018-06-18T18:56:33.810Z,67.80
2018-06-18T19:01:41.424Z,68.60
2018-06-18T19:04:12.165Z,68.90
2018-06-18T19:06:40.093Z,68.60
2018-06-18T19:09:09.895Z,68.40
2018-06-18T19:11:38.491Z,68.30
2018-06-18T19:19:03.338Z,71.70
2018-06-18T19:21:32.252Z,72.60
2018-06-18T19:26:28.497Z,73.10
2018-06-18T19:31:25.251Z,73.00
2018-06-18T19:34:15.892Z,72.90
2018-06-18T19:36:50.964Z,72.70
2018-06-18T19:39:19.449Z,73.20
2018-06-18T19:41:47.349Z,73.80
2018-06-18T19:46:53.866Z,73.40
2018-06-18T19:49:21.779Z,73.40
2018-06-18T19:51:49.866Z,73.70
2018-06-18T19:54:20.557Z,74.80
2018-06-18T19:56:48.768Z,74.80
2018-06-18T19:59:16.653Z,75.10
2018-06-18T20:06:40.292Z,75.80
2018-06-18T20:09:10.263Z,76.10
2018-06-18T20:11:38.675Z,76.10
2018-06-18T20:14:06.747Z,76.40
2018-06-18T20:16:35.241Z,76.40
2018-06-18T20:19:03.241Z,77.20
2018-06-18T20:21:31.463Z,77.00
2018-06-18T20:26:27.698Z,77.50
2018-06-18T20:31:24.068Z,77.70
2018-06-18T20:33:54.727Z,77.60
2018-06-18T20:36:23.925Z,78.30
2018-06-18T20:38:52.095Z,78.40
2018-06-18T20:41:20.431Z,78.40
2018-06-18T20:43:57.232Z,78.30
2018-06-18T20:46:25.132Z,78.90
2018-06-18T20:48:53.241Z,79.00
2018-06-18T20:53:49.294Z,79.30
2018-06-18T20:58:44.939Z,80.20
2018-06-18T21:06:08.403Z,80.40
2018-06-18T21:08:36.327Z,80.80
2018-06-18T21:11:04.359Z,80.50
2018-06-18T21:16:00.674Z,80.60
2018-06-18T21:18:29.086Z,81.40
2018-06-18T21:23:24.930Z,81.20
2018-06-18T21:28:21.044Z,81.10
2018-06-18T21:30:48.977Z,81.00
2018-06-18T21:33:16.863Z,81.30
2018-06-18T21:35:44.780Z,81.50
2018-06-18T21:40:40.891Z,81.80
2018-06-18T21:43:09.207Z,81.30
2018-06-18T21:45:37.112Z,80.80
2018-06-18T21:48:05.118Z,80.90
2018-06-18T21:50:33.044Z,80.80
2018-06-18T21:53:01.008Z,81.20
2018-06-18T21:55:28.961Z,82.00
2018-06-18T21:57:56.909Z,82.00
2018-06-18T22:02:54.254Z,82.50
2018-06-18T22:05:22.310Z,82.70
2018-06-18T22:07:50.261Z,83.30
2018-06-18T22:10:18.512Z,83.60
2018-06-18T22:12:46.396Z,83.10
2018-06-18T22:15:14.299Z,83.10
2018-06-18T22:20:10.364Z,83.40
2018-06-18T22:27:34.307Z,83.10
2018-06-18T22:30:02.262Z,83.20
2018-06-18T22:32:30.268Z,83.10
2018-06-18T22:34:58.402Z,83.20
2018-06-18T22:37:26.471Z,83.30
2018-06-18T22:39:54.476Z,83.90
2018-06-18T22:42:22.449Z,84.40
2018-06-18T22:44:50.563Z,84.40
2018-06-18T22:47:18.518Z,84.40
2018-06-18T22:49:46.942Z,84.30
2018-06-18T22:54:46.967Z,84.50
2018-06-18T22:59:44.343Z,84.80
2018-06-18T23:04:40.856Z,85.00
2018-06-18T23:09:36.951Z,85.20
2018-06-18T23:12:05.224Z,85.10
2018-06-18T23:14:33.195Z,85.60
2018-06-18T23:17:02.112Z,85.20
2018-06-18T23:19:30.184Z,85.40
2018-06-18T23:21:58.336Z,85.40
2018-06-18T23:24:26.247Z,86.10
2018-06-18T23:26:55.417Z,85.80
2018-06-18T23:29:23.671Z,85.50
2018-06-18T23:31:52.137Z,85.50
2018-06-18T23:34:20.173Z,85.90
2018-06-18T23:36:48.118Z,86.00
2018-06-18T23:39:16.606Z,86.20
2018-06-18T23:41:47.698Z,86.40
2018-06-18T23:44:15.743Z,86.60
2018-06-18T23:46:43.680Z,87.20
2018-06-18T23:49:11.779Z,87.20
2018-06-18T23:51:41.212Z,87.10
2018-06-18T23:54:09.257Z,87.20
2018-06-18T23:56:37.162Z,87.20
2018-06-18T23:59:05.793Z,87.60
